createdAt,value
2019-03-19T00:00:20.908Z,5.40
2019-03-19T00:02:49.753Z,5.30
2019-03-19T00:05:18.599Z,5.40
2019-03-19T00:07:47.436Z,5.30
2019-03-19T00:10:16.282Z,5.30
2019-03-19T00:12:45.131Z,5.30
2019-03-19T00:15:13.967Z,5.30
2019-03-19T00:17:42.816Z,5.30
2019-03-19T00:20:13.830Z,5.30
2019-03-19T00:22:42.680Z,5.20
2019-03-19T00:25:11.553Z,5.30
2019-03-19T00:27:40.399Z,5.20
2019-03-19T00:30:12.008Z,5.20
2019-03-19T00:32:40.860Z,5.20
2019-03-19T00:35:10.118Z,5.20
2019-03-19T00:37:39.009Z,5.20
2019-03-19T00:40:10.348Z,5.20
2019-03-19T00:42:39.191Z,5.10
2019-03-19T00:45:12.800Z,5.10
2019-03-19T00:47:41.643Z,5.10
2019-03-19T00:50:15.455Z,5.10
2019-03-19T00:52:44.297Z,5.10
2019-03-19T00:55:13.338Z,5.10
2019-03-19T00:57:42.172Z,5.10
2019-03-19T01:00:16.428Z,5.00
2019-03-19T01:02:45.265Z,5.00
2019-03-19T01:05:14.204Z,5.00
2019-03-19T01:07:43.044Z,5.00
2019-03-19T01:10:17.990Z,5.00
2019-03-19T01:13:06.232Z,5.00
2019-03-19T01:15:35.115Z,4.90
2019-03-19T01:18:05.198Z,4.90
2019-03-19T01:20:34.032Z,4.90
2019-03-19T01:23:02.928Z,4.90
2019-03-19T01:25:31.822Z,4.90
2019-03-19T01:28:00.693Z,4.90
2019-03-19T01:30:29.532Z,4.90
2019-03-19T01:32:58.397Z,4.90
2019-03-19T01:35:27.245Z,4.90
2019-03-19T01:37:56.101Z,4.90
2019-03-19T01:40:24.980Z,4.90
2019-03-19T01:42:53.837Z,4.90
2019-03-19T01:45:22.681Z,4.90
2019-03-19T01:47:51.527Z,4.90
2019-03-19T01:50:20.368Z,5.00
2019-03-19T01:52:49.239Z,4.90
2019-03-19T01:55:18.081Z,4.90
2019-03-19T01:57:46.921Z,4.90
2019-03-19T02:00:17.193Z,4.90
2019-03-19T02:02:46.042Z,4.90
2019-03-19T02:05:15.279Z,4.90
2019-03-19T02:07:44.317Z,4.90
2019-03-19T02:10:14.149Z,4.90
2019-03-19T02:12:42.995Z,4.80
2019-03-19T02:15:14.232Z,4.80
2019-03-19T02:17:43.069Z,4.80
2019-03-19T02:20:14.849Z,4.80
2019-03-19T02:22:43.696Z,4.70
2019-03-19T02:25:12.536Z,4.70
2019-03-19T02:27:41.386Z,4.70
2019-03-19T02:30:15.065Z,4.70
2019-03-19T02:32:44.033Z,4.70
2019-03-19T02:35:12.886Z,4.70
2019-03-19T02:37:41.742Z,4.80
2019-03-19T02:40:14.788Z,4.70
2019-03-19T02:42:43.635Z,4.70
2019-03-19T02:45:13.841Z,4.70
2019-03-19T02:47:42.747Z,4.70
2019-03-19T02:50:19.055Z,4.70
2019-03-19T02:52:47.904Z,4.70
2019-03-19T02:55:16.748Z,4.60
2019-03-19T02:57:45.595Z,4.60
2019-03-19T03:00:18.482Z,4.60
2019-03-19T03:02:47.525Z,4.60
2019-03-19T03:05:18.482Z,4.60
2019-03-19T03:07:47.594Z,4.60
2019-03-19T03:10:16.461Z,4.50
2019-03-19T03:12:45.284Z,4.60
2019-03-19T03:15:14.724Z,4.50
2019-03-19T03:17:43.618Z,4.50
2019-03-19T03:20:13.752Z,4.40
2019-03-19T03:22:42.597Z,4.50
2019-03-19T03:25:13.951Z,4.40
2019-03-19T03:27:42.799Z,4.20
2019-03-19T03:30:22.560Z,4.10
2019-03-19T03:32:51.546Z,4.10
2019-03-19T03:35:20.366Z,4.10
2019-03-19T03:37:49.217Z,4.10
2019-03-19T03:40:19.457Z,3.90
2019-03-19T03:42:48.351Z,3.80
2019-03-19T03:45:18.063Z,3.70
2019-03-19T03:47:46.912Z,3.70
2019-03-19T03:50:16.661Z,3.70
2019-03-19T03:52:45.561Z,3.70
2019-03-19T03:55:15.375Z,3.70
2019-03-19T03:57:44.228Z,3.70
2019-03-19T04:00:19.880Z,3.70
2019-03-19T04:02:48.710Z,3.80
2019-03-19T04:05:18.434Z,3.80
2019-03-19T04:07:47.338Z,3.80
2019-03-19T04:10:19.442Z,3.90
2019-03-19T04:12:48.288Z,3.80
2019-03-19T04:15:17.848Z,3.80
2019-03-19T04:17:46.803Z,3.80
2019-03-19T04:20:18.947Z,3.80
2019-03-19T04:22:47.797Z,3.80
2019-03-19T04:25:16.639Z,3.80
2019-03-19T04:27:45.494Z,3.80
2019-03-19T04:30:15.668Z,3.80
2019-03-19T04:32:44.517Z,3.80
2019-03-19T04:35:13.349Z,3.80
2019-03-19T04:37:42.426Z,3.90
2019-03-19T04:40:12.495Z,3.80
2019-03-19T04:42:41.332Z,3.80
2019-03-19T04:45:17.295Z,3.80
2019-03-19T04:47:46.137Z,3.80
2019-03-19T04:50:15.985Z,3.80
2019-03-19T04:52:44.835Z,3.80
2019-03-19T04:55:17.279Z,3.80
2019-03-19T04:57:45.256Z,3.80
2019-03-19T05:00:17.813Z,3.80
2019-03-19T05:02:46.682Z,3.90
2019-03-19T05:05:15.628Z,3.90
2019-03-19T05:07:45.468Z,3.90
2019-03-19T05:10:18.301Z,3.90
2019-03-19T05:12:47.140Z,3.90
2019-03-19T05:15:16.019Z,3.90
2019-03-19T05:17:44.869Z,3.90
2019-03-19T05:20:15.784Z,3.90
2019-03-19T05:22:44.664Z,4.00
2019-03-19T05:25:13.504Z,4.00
2019-03-19T05:27:42.356Z,4.00
2019-03-19T05:30:21.016Z,3.90
2019-03-19T05:32:49.863Z,3.90
2019-03-19T05:35:18.717Z,3.90
2019-03-19T05:37:47.569Z,4.00
2019-03-19T05:40:17.315Z,4.00
2019-03-19T05:42:46.162Z,4.10
2019-03-19T05:45:15.512Z,4.20
2019-03-19T05:47:44.457Z,4.30
2019-03-19T05:50:23.428Z,4.40
2019-03-19T05:52:52.322Z,4.40
2019-03-19T05:55:21.156Z,4.30
2019-03-19T05:57:50.663Z,4.50
2019-03-19T06:00:21.752Z,4.60
2019-03-19T06:02:50.589Z,4.70
2019-03-19T06:05:21.165Z,4.80
2019-03-19T06:07:49.970Z,4.80
2019-03-19T06:10:19.753Z,4.90
2019-03-19T06:12:48.619Z,5.00
2019-03-19T06:15:17.580Z,4.70
2019-03-19T06:17:46.421Z,4.60
2019-03-19T06:20:20.024Z,4.50
2019-03-19T06:22:48.868Z,4.30
2019-03-19T06:25:17.745Z,4.20
2019-03-19T06:27:46.597Z,4.10
2019-03-19T06:30:16.858Z,4.00
2019-03-19T06:32:45.700Z,3.80
2019-03-19T06:35:15.442Z,4.10
2019-03-19T06:37:44.280Z,4.40
2019-03-19T06:40:20.996Z,4.90
2019-03-19T06:42:49.850Z,5.70
2019-03-19T06:45:19.584Z,6.20
2019-03-19T06:47:48.428Z,6.40
2019-03-19T06:50:21.093Z,6.60
2019-03-19T06:52:49.960Z,6.80
2019-03-19T06:55:19.699Z,6.50
2019-03-19T06:57:48.548Z,5.90
2019-03-19T07:00:25.035Z,5.70
2019-03-19T07:02:53.875Z,5.70
2019-03-19T07:05:23.141Z,6.10
2019-03-19T07:07:52.481Z,6.00
2019-03-19T07:10:22.329Z,5.50
2019-03-19T07:12:51.676Z,5.70
2019-03-19T07:15:21.526Z,5.70
2019-03-19T07:17:50.367Z,6.10
2019-03-19T07:20:21.200Z,6.10
2019-03-19T07:22:50.636Z,6.10
2019-03-19T07:25:19.484Z,6.00
2019-03-19T07:27:48.363Z,5.80
2019-03-19T07:30:22.323Z,5.50
2019-03-19T07:32:51.172Z,5.50
2019-03-19T07:35:20.031Z,5.10
2019-03-19T07:37:48.880Z,5.10
2019-03-19T07:40:18.255Z,5.20
2019-03-19T07:42:47.096Z,5.30
2019-03-19T07:45:17.372Z,5.50
2019-03-19T07:47:46.225Z,5.40
2019-03-19T07:50:22.088Z,5.40
2019-03-19T07:52:50.964Z,5.50
2019-03-19T07:55:19.809Z,5.60
2019-03-19T07:57:48.651Z,5.50
2019-03-19T08:00:23.776Z,5.50
2019-03-19T08:02:52.625Z,5.30
2019-03-19T08:05:32.295Z,5.30
2019-03-19T08:07:51.968Z,5.30
2019-03-19T08:10:20.936Z,5.10
2019-03-19T08:12:49.789Z,5.20
2019-03-19T08:15:21.556Z,5.10
2019-03-19T08:17:50.396Z,5.00
2019-03-19T08:20:19.367Z,5.10
2019-03-19T08:22:48.214Z,5.20
2019-03-19T08:25:17.475Z,5.70
2019-03-19T08:27:46.387Z,6.20
2019-03-19T08:30:37.458Z,7.00
2019-03-19T08:33:06.018Z,7.50
2019-03-19T08:35:34.880Z,7.90
2019-03-19T08:38:03.729Z,8.00
2019-03-19T08:40:32.574Z,7.60
2019-03-19T08:43:01.419Z,7.40
2019-03-19T08:45:30.259Z,7.20
2019-03-19T08:47:59.117Z,7.10
2019-03-19T08:50:27.980Z,6.90
2019-03-19T08:52:56.802Z,7.00
2019-03-19T08:55:25.647Z,6.90
2019-03-19T08:57:54.503Z,6.70
2019-03-19T09:00:27.470Z,6.50
2019-03-19T09:02:56.325Z,6.50
2019-03-19T09:05:25.181Z,6.70
2019-03-19T09:07:54.048Z,7.00
2019-03-19T09:10:22.899Z,6.30
2019-03-19T09:12:51.761Z,6.00
2019-03-19T09:15:27.887Z,5.80
2019-03-19T09:17:56.723Z,6.10
2019-03-19T09:20:25.568Z,6.20
2019-03-19T09:22:54.431Z,6.00
2019-03-19T09:25:23.280Z,6.00
2019-03-19T09:27:52.128Z,6.10
2019-03-19T09:30:24.635Z,5.50
2019-03-19T09:32:53.738Z,5.70
2019-03-19T09:35:22.572Z,5.90
2019-03-19T09:37:58.349Z,6.40
2019-03-19T09:40:23.392Z,7.70
2019-03-19T09:42:52.269Z,7.90
2019-03-19T09:45:21.119Z,8.60
2019-03-19T09:47:49.961Z,7.40
2019-03-19T09:50:24.481Z,7.70
2019-03-19T09:52:53.325Z,8.00
2019-03-19T09:55:22.172Z,8.30
2019-03-19T09:57:51.027Z,7.60
2019-03-19T10:00:24.522Z,7.00
2019-03-19T10:02:53.428Z,7.10
2019-03-19T10:05:33.891Z,7.30
2019-03-19T10:08:02.469Z,7.60
2019-03-19T10:10:31.348Z,7.80
2019-03-19T10:13:01.574Z,7.80
2019-03-19T10:15:30.424Z,7.50
2019-03-19T10:17:59.265Z,7.30
2019-03-19T10:20:28.137Z,7.20
2019-03-19T10:22:56.986Z,7.10
2019-03-19T10:25:25.835Z,7.10
2019-03-19T10:27:54.690Z,6.80
2019-03-19T10:30:24.330Z,6.70
2019-03-19T10:32:53.182Z,6.70
2019-03-19T10:35:22.032Z,7.20
2019-03-19T10:37:51.240Z,6.80
2019-03-19T10:40:20.821Z,7.20
2019-03-19T10:42:49.749Z,7.40
2019-03-19T10:45:22.938Z,7.60
2019-03-19T10:47:51.781Z,7.90
2019-03-19T10:50:27.722Z,8.00
2019-03-19T10:52:56.626Z,7.70
2019-03-19T10:55:25.483Z,7.30
2019-03-19T10:57:54.323Z,7.10
2019-03-19T11:00:24.184Z,6.90
2019-03-19T11:02:53.240Z,6.60
2019-03-19T11:05:23.392Z,6.70
2019-03-19T11:07:52.427Z,6.60
2019-03-19T11:10:21.472Z,6.60
2019-03-19T11:12:50.318Z,6.40
2019-03-19T11:15:23.376Z,5.80
2019-03-19T11:17:52.328Z,5.90
2019-03-19T11:20:22.184Z,6.00
2019-03-19T11:22:51.032Z,5.80
2019-03-19T11:25:24.789Z,5.70
2019-03-19T11:27:53.636Z,5.60
2019-03-19T11:30:29.201Z,5.80
2019-03-19T11:32:58.080Z,5.70
2019-03-19T11:35:26.925Z,5.70
2019-03-19T11:37:55.764Z,5.50
2019-03-19T11:40:26.001Z,5.40
2019-03-19T11:42:55.303Z,5.70
2019-03-19T11:45:24.632Z,5.60
2019-03-19T11:47:53.602Z,5.60
2019-03-19T11:50:27.362Z,5.60
2019-03-19T11:52:56.279Z,5.60
2019-03-19T11:55:25.115Z,5.70
2019-03-19T11:57:54.158Z,5.60
2019-03-19T12:00:34.557Z,5.70
2019-03-19T12:03:14.923Z,5.60
2019-03-19T12:05:34.016Z,5.50
2019-03-19T12:08:02.854Z,5.40
2019-03-19T12:10:51.225Z,5.30
2019-03-19T12:13:20.060Z,5.10
2019-03-19T12:15:48.901Z,5.10
2019-03-19T12:18:17.855Z,5.40
2019-03-19T12:20:47.748Z,5.60
2019-03-19T12:23:16.747Z,5.60
2019-03-19T12:25:45.650Z,5.40
2019-03-19T12:28:14.514Z,5.00
2019-03-19T12:30:43.367Z,4.90
2019-03-19T12:33:12.184Z,5.00
2019-03-19T12:35:41.054Z,5.00
2019-03-19T12:38:09.912Z,5.10
2019-03-19T12:40:38.760Z,4.90
2019-03-19T12:43:13.380Z,4.90
2019-03-19T12:45:42.418Z,4.90
2019-03-19T12:48:11.349Z,4.90
2019-03-19T12:50:40.199Z,4.60
2019-03-19T12:53:09.068Z,4.50
2019-03-19T12:55:37.920Z,4.20
2019-03-19T12:58:06.867Z,4.30
2019-03-19T13:00:35.732Z,4.40
2019-03-19T13:03:05.112Z,4.20
2019-03-19T13:05:33.969Z,4.20
2019-03-19T13:08:12.329Z,4.30
2019-03-19T13:10:37.196Z,4.30
2019-03-19T13:13:06.246Z,4.40
2019-03-19T13:15:35.185Z,4.30
2019-03-19T13:18:04.020Z,4.20
2019-03-19T13:20:32.864Z,4.20
2019-03-19T13:23:01.720Z,4.30
2019-03-19T13:25:30.600Z,4.20
2019-03-19T13:27:59.445Z,4.20
2019-03-19T13:30:30.261Z,4.20
2019-03-19T13:32:59.103Z,4.20
2019-03-19T13:35:27.948Z,4.10
2019-03-19T13:37:56.796Z,4.00
2019-03-19T13:40:25.634Z,4.00
2019-03-19T13:42:54.476Z,4.00
2019-03-19T13:45:27.715Z,3.90
2019-03-19T13:47:58.197Z,3.90
2019-03-19T13:50:27.199Z,3.90
2019-03-19T13:52:56.107Z,3.90
2019-03-19T13:55:25.056Z,4.00
2019-03-19T13:57:53.908Z,4.00
2019-03-19T14:00:22.748Z,4.00
2019-03-19T14:02:51.600Z,4.10
2019-03-19T14:05:20.740Z,4.00
2019-03-19T14:07:49.587Z,4.10
2019-03-19T14:10:19.429Z,4.10
2019-03-19T14:12:48.389Z,4.10
2019-03-19T14:15:36.503Z,4.00
2019-03-19T14:18:05.751Z,4.10
2019-03-19T14:20:34.836Z,4.00
2019-03-19T14:23:04.611Z,4.10
2019-03-19T14:25:33.464Z,4.20
2019-03-19T14:28:02.376Z,4.20
2019-03-19T14:30:31.273Z,4.30
2019-03-19T14:33:00.154Z,4.20
2019-03-19T14:35:36.868Z,4.20
2019-03-19T14:37:59.500Z,4.10
2019-03-19T14:40:28.356Z,4.10
2019-03-19T14:43:00.052Z,4.00
2019-03-19T14:45:27.704Z,3.90
2019-03-19T14:47:56.559Z,3.90
2019-03-19T14:50:26.401Z,3.90
2019-03-19T14:52:55.266Z,3.90
2019-03-19T14:55:24.103Z,3.80
2019-03-19T14:57:52.949Z,3.80
2019-03-19T15:00:22.617Z,3.80
2019-03-19T15:02:51.854Z,3.80
2019-03-19T15:05:20.849Z,3.70
2019-03-19T15:07:49.740Z,3.80
2019-03-19T15:10:21.641Z,3.80
2019-03-19T15:12:50.486Z,3.70
2019-03-19T15:15:22.857Z,3.60
2019-03-19T15:17:50.860Z,3.70
2019-03-19T15:20:26.780Z,3.60
2019-03-19T15:22:55.633Z,3.60
2019-03-19T15:25:24.465Z,3.60
2019-03-19T15:27:53.411Z,3.60
2019-03-19T15:30:22.350Z,3.70
2019-03-19T15:32:51.213Z,3.70
2019-03-19T15:35:20.048Z,3.60
2019-03-19T15:37:48.895Z,3.60
2019-03-19T15:40:20.946Z,3.60
2019-03-19T15:42:49.880Z,3.60
2019-03-19T15:45:20.901Z,3.50
2019-03-19T15:47:49.741Z,3.50
2019-03-19T15:50:18.582Z,3.50
2019-03-19T15:52:47.419Z,3.50
2019-03-19T15:55:16.393Z,3.40
2019-03-19T15:57:45.272Z,3.30
2019-03-19T16:00:18.353Z,3.30
2019-03-19T16:02:47.205Z,3.40
2019-03-19T16:05:16.093Z,3.40
2019-03-19T16:07:44.926Z,3.40
2019-03-19T16:10:17.120Z,3.40
2019-03-19T16:12:45.964Z,3.40
2019-03-19T16:15:21.166Z,3.20
2019-03-19T16:17:50.017Z,3.10
2019-03-19T16:20:19.766Z,3.10
2019-03-19T16:22:48.715Z,3.00
2019-03-19T16:25:17.565Z,3.00
2019-03-19T16:27:46.415Z,3.00
2019-03-19T16:30:19.725Z,3.10
2019-03-19T16:32:48.579Z,3.10
2019-03-19T16:35:17.411Z,3.10
2019-03-19T16:37:46.271Z,3.10
2019-03-19T16:40:19.593Z,3.10
2019-03-19T16:42:48.531Z,3.10
2019-03-19T16:45:18.271Z,3.10
2019-03-19T16:47:47.545Z,3.10
2019-03-19T16:50:21.169Z,3.00
2019-03-19T16:52:50.016Z,3.00
2019-03-19T16:55:19.874Z,3.00
2019-03-19T16:57:48.756Z,3.00
2019-03-19T17:00:20.550Z,3.00
2019-03-19T17:02:49.403Z,3.00
2019-03-19T17:05:20.270Z,3.00
2019-03-19T17:07:49.172Z,3.00
2019-03-19T17:10:23.181Z,3.00
2019-03-19T17:12:52.032Z,3.00
2019-03-19T17:15:20.876Z,3.00
2019-03-19T17:17:49.741Z,3.10
2019-03-19T17:20:19.483Z,3.00
2019-03-19T17:22:48.370Z,3.00
2019-03-19T17:25:20.148Z,3.00
2019-03-19T17:27:49.009Z,3.00
2019-03-19T17:30:35.430Z,2.90
2019-03-19T17:33:04.432Z,3.00
2019-03-19T17:35:33.333Z,2.90
2019-03-19T17:38:02.185Z,2.90
2019-03-19T17:40:40.850Z,2.80
2019-03-19T17:43:02.625Z,2.80
2019-03-19T17:45:31.516Z,2.80
2019-03-19T17:48:00.357Z,2.90
2019-03-19T17:50:33.967Z,2.90
2019-03-19T17:53:02.808Z,2.80
2019-03-19T17:55:33.612Z,2.80
2019-03-19T17:58:02.213Z,2.80
2019-03-19T18:00:44.656Z,2.80
2019-03-19T18:03:13.629Z,2.80
2019-03-19T18:05:42.721Z,2.80
2019-03-19T18:08:11.579Z,2.80
2019-03-19T18:10:40.438Z,2.80
2019-03-19T18:13:09.333Z,2.70
2019-03-19T18:15:39.040Z,2.70
2019-03-19T18:18:08.905Z,2.70
2019-03-19T18:20:37.759Z,2.70
2019-03-19T18:23:06.624Z,2.70
2019-03-19T18:25:35.536Z,2.70
2019-03-19T18:28:04.715Z,2.50
2019-03-19T18:30:34.338Z,2.60
2019-03-19T18:33:03.268Z,2.50
2019-03-19T18:35:33.691Z,2.60
2019-03-19T18:38:05.741Z,2.60
2019-03-19T18:40:35.571Z,2.50
2019-03-19T18:43:04.650Z,2.50
2019-03-19T18:45:33.496Z,2.50
2019-03-19T18:48:03.536Z,2.40
2019-03-19T18:50:32.678Z,2.50
2019-03-19T18:53:01.661Z,2.50
2019-03-19T18:55:30.505Z,2.50
2019-03-19T18:57:59.353Z,2.50
2019-03-19T19:00:28.718Z,2.50
2019-03-19T19:02:58.725Z,2.50
2019-03-19T19:05:27.630Z,2.50
2019-03-19T19:07:56.470Z,2.50
2019-03-19T19:10:25.613Z,2.50
2019-03-19T19:12:54.670Z,2.50
2019-03-19T19:15:24.359Z,2.40
2019-03-19T19:17:53.223Z,2.40
2019-03-19T19:20:22.192Z,2.30
2019-03-19T19:22:51.083Z,2.30
2019-03-19T19:25:27.307Z,2.40
2019-03-19T19:27:53.228Z,2.40
2019-03-19T19:30:23.533Z,2.40
2019-03-19T19:33:00.808Z,2.40
2019-03-19T19:35:23.810Z,2.30
2019-03-19T19:37:52.741Z,2.30
2019-03-19T19:40:21.733Z,2.30
2019-03-19T19:42:50.584Z,2.30
2019-03-19T19:45:20.006Z,2.30
2019-03-19T19:47:48.986Z,2.30
2019-03-19T19:50:21.484Z,2.30
2019-03-19T19:52:50.381Z,2.30
2019-03-19T19:55:19.221Z,2.30
2019-03-19T19:57:48.177Z,2.30
2019-03-19T20:00:21.004Z,2.30
2019-03-19T20:02:50.052Z,2.30
2019-03-19T20:05:18.896Z,2.30
2019-03-19T20:07:47.767Z,2.30
2019-03-19T20:10:24.295Z,2.20
2019-03-19T20:12:54.620Z,2.20
2019-03-19T20:15:23.489Z,2.20
2019-03-19T20:17:53.780Z,2.20
2019-03-19T20:20:33.818Z,2.20
2019-03-19T20:23:03.093Z,2.20
2019-03-19T20:25:32.076Z,2.30
2019-03-19T20:28:00.987Z,2.20
2019-03-19T20:30:29.952Z,2.30
2019-03-19T20:32:58.918Z,2.30
2019-03-19T20:35:29.793Z,2.20
2019-03-19T20:37:58.679Z,2.20
2019-03-19T20:40:27.512Z,2.20
2019-03-19T20:42:56.356Z,2.20
2019-03-19T20:45:26.521Z,2.10
2019-03-19T20:47:55.408Z,2.10
2019-03-19T20:50:29.079Z,2.10
2019-03-19T20:52:57.904Z,2.10
2019-03-19T20:55:26.745Z,2.10
2019-03-19T20:57:55.705Z,2.10
2019-03-19T21:00:24.761Z,2.10
2019-03-19T21:02:53.695Z,2.10
2019-03-19T21:05:22.626Z,2.00
2019-03-19T21:07:51.644Z,2.00
2019-03-19T21:10:27.324Z,2.00
2019-03-19T21:12:56.168Z,2.00
2019-03-19T21:15:30.999Z,2.00
2019-03-19T21:18:00.187Z,2.00
2019-03-19T21:20:29.129Z,2.10
2019-03-19T21:22:57.976Z,2.10
2019-03-19T21:25:26.895Z,2.10
2019-03-19T21:27:55.744Z,2.20
2019-03-19T21:30:25.123Z,2.20
2019-03-19T21:32:53.968Z,2.20
2019-03-19T21:35:23.623Z,2.10
2019-03-19T21:37:53.434Z,2.10
2019-03-19T21:40:22.268Z,2.10
2019-03-19T21:42:51.133Z,2.10
2019-03-19T21:45:23.137Z,2.10
2019-03-19T21:47:53.906Z,2.10
2019-03-19T21:50:26.327Z,2.10
2019-03-19T21:52:54.326Z,2.10
2019-03-19T21:55:24.277Z,2.10
2019-03-19T21:57:53.147Z,2.20
2019-03-19T22:00:24.986Z,2.10
2019-03-19T22:02:53.830Z,2.10
2019-03-19T22:05:23.155Z,2.10
2019-03-19T22:07:52.008Z,2.10
2019-03-19T22:10:21.740Z,2.10
2019-03-19T22:12:50.682Z,2.00
2019-03-19T22:15:20.744Z,2.00
2019-03-19T22:17:49.576Z,2.00
2019-03-19T22:20:18.674Z,2.00
2019-03-19T22:22:47.713Z,2.00
2019-03-19T22:25:16.841Z,2.00
2019-03-19T22:27:45.688Z,2.00
2019-03-19T22:30:19.692Z,2.00
2019-03-19T22:32:48.540Z,2.00
2019-03-19T22:35:17.388Z,2.10
2019-03-19T22:37:46.222Z,2.00
2019-03-19T22:40:16.915Z,1.90
2019-03-19T22:42:45.835Z,1.90
2019-03-19T22:45:16.076Z,2.00
2019-03-19T22:47:45.053Z,2.10
2019-03-19T22:50:15.963Z,2.00
2019-03-19T22:52:45.315Z,2.00
2019-03-19T22:55:15.012Z,2.00
2019-03-19T22:57:43.850Z,2.00
2019-03-19T23:00:33.313Z,2.00
2019-03-19T23:03:02.154Z,2.00
2019-03-19T23:05:31.000Z,2.00
2019-03-19T23:07:59.856Z,2.00
2019-03-19T23:10:29.692Z,2.00
2019-03-19T23:12:58.694Z,2.00
2019-03-19T23:15:27.538Z,2.00
2019-03-19T23:17:56.388Z,2.00
2019-03-19T23:20:25.340Z,2.00
2019-03-19T23:22:54.204Z,2.00
2019-03-19T23:25:23.090Z,2.00
2019-03-19T23:27:51.932Z,2.00
2019-03-19T23:30:24.612Z,2.00
2019-03-19T23:32:53.461Z,2.00
2019-03-19T23:35:22.300Z,1.90
2019-03-19T23:37:51.175Z,1.90
2019-03-19T23:40:20.928Z,2.00
2019-03-19T23:42:50.639Z,2.00
2019-03-19T23:45:19.533Z,1.90
2019-03-19T23:47:48.386Z,2.00
2019-03-19T23:50:19.295Z,1.90
2019-03-19T23:52:48.169Z,2.00
2019-03-19T23:55:17.007Z,2.00
2019-03-19T23:57:45.848Z,2.10
